sensor_id;sensor_type;location;lat;lon;timestamp;P1;durP1;ratioP1;P2;durP2;ratioP2
76292;SDS011;67256;51.154;4.164;2023-08-01T00:00:31;14.63;;;7.95;;
76292;SDS011;67256;51.154;4.164;2023-08-01T00:02:58;9.80;;;7.18;;
76292;SDS011;67256;51.154;4.164;2023-08-01T00:05:24;12.25;;;8.00;;
76292;SDS011;67256;51.154;4.164;2023-08-01T00:07:50;17.23;;;8.27;;
76292;SDS011;67256;51.154;4.164;2023-08-01T00:10:16;11.75;;;7.70;;
76292;SDS011;67256;51.154;4.164;2023-08-01T00:12:42;12.75;;;8.68;;
76292;SDS011;67256;51.154;4.164;2023-08-01T00:15:08;14.50;;;8.60;;
76292;SDS011;67256;51.154;4.164;2023-08-01T00:17:34;18.95;;;9.00;;
76292;SDS011;67256;51.154;4.164;2023-08-01T00:20:03;11.80;;;9.30;;
76292;SDS011;67256;51.154;4.164;2023-08-01T00:22:29;13.77;;;10.15;;
76292;SDS011;67256;51.154;4.164;2023-08-01T00:24:55;15.45;;;9.70;;
76292;SDS011;67256;51.154;4.164;2023-08-01T00:27:21;16.65;;;11.20;;
76292;SDS011;67256;51.154;4.164;2023-08-01T00:29:47;19.35;;;10.95;;
76292;SDS011;67256;51.154;4.164;2023-08-01T00:32:12;15.15;;;10.30;;
76292;SDS011;67256;51.154;4.164;2023-08-01T00:34:38;19.45;;;11.00;;
76292;SDS011;67256;51.154;4.164;2023-08-01T00:37:04;20.10;;;10.93;;
76292;SDS011;67256;51.154;4.164;2023-08-01T00:39:30;15.32;;;10.05;;
76292;SDS011;67256;51.154;4.164;2023-08-01T00:41:56;15.65;;;10.45;;
76292;SDS011;67256;51.154;4.164;2023-08-01T00:44:22;16.13;;;9.80;;
76292;SDS011;67256;51.154;4.164;2023-08-01T00:46:47;14.30;;;9.73;;
76292;SDS011;67256;51.154;4.164;2023-08-01T00:49:14;16.88;;;10.15;;
76292;SDS011;67256;51.154;4.164;2023-08-01T00:51:40;14.95;;;10.15;;
76292;SDS011;67256;51.154;4.164;2023-08-01T00:54:06;16.40;;;10.60;;
76292;SDS011;67256;51.154;4.164;2023-08-01T00:56:32;15.80;;;10.00;;
76292;SDS011;67256;51.154;4.164;2023-08-01T00:58:58;13.35;;;9.63;;
76292;SDS011;67256;51.154;4.164;2023-08-01T01:01:24;18.55;;;9.80;;
76292;SDS011;67256;51.154;4.164;2023-08-01T01:03:49;16.52;;;9.77;;
76292;SDS011;67256;51.154;4.164;2023-08-01T01:06:29;15.73;;;10.38;;
76292;SDS011;67256;51.154;4.164;2023-08-01T01:09:39;15.02;;;9.68;;
76292;SDS011;67256;51.154;4.164;2023-08-01T01:11:58;17.63;;;11.05;;
76292;SDS011;67256;51.154;4.164;2023-08-01T01:14:28;19.75;;;10.95;;
76292;SDS011;67256;51.154;4.164;2023-08-01T01:16:53;17.63;;;10.65;;
76292;SDS011;67256;51.154;4.164;2023-08-01T01:19:20;18.60;;;10.43;;
76292;SDS011;67256;51.154;4.164;2023-08-01T01:21:46;16.55;;;10.23;;
76292;SDS011;67256;51.154;4.164;2023-08-01T01:24:13;19.40;;;11.57;;
76292;SDS011;67256;51.154;4.164;2023-08-01T01:26:41;18.67;;;11.50;;
76292;SDS011;67256;51.154;4.164;2023-08-01T01:29:07;18.75;;;11.77;;
76292;SDS011;67256;51.154;4.164;2023-08-01T01:31:35;20.55;;;11.23;;
76292;SDS011;67256;51.154;4.164;2023-08-01T01:34:02;20.25;;;12.15;;
76292;SDS011;67256;51.154;4.164;2023-08-01T01:36:29;18.48;;;12.02;;
76292;SDS011;67256;51.154;4.164;2023-08-01T01:38:55;21.23;;;12.52;;
76292;SDS011;67256;51.154;4.164;2023-08-01T01:41:20;23.50;;;12.32;;
76292;SDS011;67256;51.154;4.164;2023-08-01T01:43:47;22.05;;;12.55;;
76292;SDS011;67256;51.154;4.164;2023-08-01T01:46:13;18.02;;;12.98;;
76292;SDS011;67256;51.154;4.164;2023-08-01T01:48:39;18.17;;;11.90;;
76292;SDS011;67256;51.154;4.164;2023-08-01T01:51:07;14.98;;;11.65;;
76292;SDS011;67256;51.154;4.164;2023-08-01T01:53:32;24.48;;;12.85;;
76292;SDS011;67256;51.154;4.164;2023-08-01T01:55:58;20.50;;;13.25;;
76292;SDS011;67256;51.154;4.164;2023-08-01T01:58:24;20.85;;;12.32;;
76292;SDS011;67256;51.154;4.164;2023-08-01T02:00:49;25.25;;;12.80;;
76292;SDS011;67256;51.154;4.164;2023-08-01T02:03:15;23.05;;;12.88;;
76292;SDS011;67256;51.154;4.164;2023-08-01T02:05:41;20.77;;;13.20;;
76292;SDS011;67256;51.154;4.164;2023-08-01T02:08:06;24.98;;;13.63;;
76292;SDS011;67256;51.154;4.164;2023-08-01T02:10:32;21.25;;;13.40;;
76292;SDS011;67256;51.154;4.164;2023-08-01T02:12:58;22.55;;;12.88;;
76292;SDS011;67256;51.154;4.164;2023-08-01T02:15:24;21.30;;;13.52;;
76292;SDS011;67256;51.154;4.164;2023-08-01T02:17:49;22.67;;;13.13;;
76292;SDS011;67256;51.154;4.164;2023-08-01T02:20:15;21.00;;;12.23;;
76292;SDS011;67256;51.154;4.164;2023-08-01T02:22:41;21.17;;;13.20;;
76292;SDS011;67256;51.154;4.164;2023-08-01T02:25:07;28.50;;;14.48;;
76292;SDS011;67256;51.154;4.164;2023-08-01T02:27:33;24.75;;;13.95;;
76292;SDS011;67256;51.154;4.164;2023-08-01T02:29:59;22.70;;;13.48;;
76292;SDS011;67256;51.154;4.164;2023-08-01T02:32:25;22.45;;;13.75;;
76292;SDS011;67256;51.154;4.164;2023-08-01T02:34:50;22.45;;;14.00;;
76292;SDS011;67256;51.154;4.164;2023-08-01T02:37:16;19.83;;;13.43;;
76292;SDS011;67256;51.154;4.164;2023-08-01T02:39:42;21.08;;;13.07;;
76292;SDS011;67256;51.154;4.164;2023-08-01T02:42:07;21.73;;;14.07;;
76292;SDS011;67256;51.154;4.164;2023-08-01T02:44:33;23.40;;;14.80;;
76292;SDS011;67256;51.154;4.164;2023-08-01T02:46:59;21.48;;;13.73;;
76292;SDS011;67256;51.154;4.164;2023-08-01T02:49:24;25.30;;;13.32;;
76292;SDS011;67256;51.154;4.164;2023-08-01T02:51:50;22.83;;;13.88;;
76292;SDS011;67256;51.154;4.164;2023-08-01T02:54:16;27.17;;;13.30;;
76292;SDS011;67256;51.154;4.164;2023-08-01T02:56:41;23.23;;;12.95;;
76292;SDS011;67256;51.154;4.164;2023-08-01T02:59:07;21.02;;;12.95;;
76292;SDS011;67256;51.154;4.164;2023-08-01T03:01:36;24.67;;;13.15;;
76292;SDS011;67256;51.154;4.164;2023-08-01T03:04:03;21.42;;;11.95;;
76292;SDS011;67256;51.154;4.164;2023-08-01T03:06:29;28.55;;;13.38;;
76292;SDS011;67256;51.154;4.164;2023-08-01T03:08:56;22.70;;;12.90;;
76292;SDS011;67256;51.154;4.164;2023-08-01T03:11:22;21.58;;;13.55;;
76292;SDS011;67256;51.154;4.164;2023-08-01T03:13:47;25.92;;;13.43;;
76292;SDS011;67256;51.154;4.164;2023-08-01T03:16:13;21.52;;;13.25;;
76292;SDS011;67256;51.154;4.164;2023-08-01T03:18:38;26.55;;;14.23;;
76292;SDS011;67256;51.154;4.164;2023-08-01T03:21:04;24.65;;;13.63;;
76292;SDS011;67256;51.154;4.164;2023-08-01T03:23:30;23.20;;;13.95;;
76292;SDS011;67256;51.154;4.164;2023-08-01T03:25:55;26.08;;;13.85;;
76292;SDS011;67256;51.154;4.164;2023-08-01T03:28:21;27.13;;;14.07;;
76292;SDS011;67256;51.154;4.164;2023-08-01T03:30:47;26.58;;;14.63;;
76292;SDS011;67256;51.154;4.164;2023-08-01T03:33:15;22.38;;;13.90;;
76292;SDS011;67256;51.154;4.164;2023-08-01T03:35:41;27.00;;;15.57;;
76292;SDS011;67256;51.154;4.164;2023-08-01T03:38:07;30.45;;;15.07;;
76292;SDS011;67256;51.154;4.164;2023-08-01T03:40:32;25.75;;;14.68;;
76292;SDS011;67256;51.154;4.164;2023-08-01T03:42:58;26.70;;;14.40;;
76292;SDS011;67256;51.154;4.164;2023-08-01T03:45:24;28.95;;;14.27;;
76292;SDS011;67256;51.154;4.164;2023-08-01T03:47:50;26.00;;;14.93;;
76292;SDS011;67256;51.154;4.164;2023-08-01T03:50:16;27.63;;;14.23;;
76292;SDS011;67256;51.154;4.164;2023-08-01T03:52:42;26.98;;;14.10;;
76292;SDS011;67256;51.154;4.164;2023-08-01T03:55:07;21.92;;;14.45;;
76292;SDS011;67256;51.154;4.164;2023-08-01T03:57:33;27.17;;;15.00;;
76292;SDS011;67256;51.154;4.164;2023-08-01T03:59:59;26.70;;;13.38;;
76292;SDS011;67256;51.154;4.164;2023-08-01T04:02:25;23.45;;;13.70;;
76292;SDS011;67256;51.154;4.164;2023-08-01T04:04:51;17.88;;;12.23;;
76292;SDS011;67256;51.154;4.164;2023-08-01T04:07:18;23.85;;;13.43;;
76292;SDS011;67256;51.154;4.164;2023-08-01T04:09:44;26.77;;;13.63;;
76292;SDS011;67256;51.154;4.164;2023-08-01T04:12:09;26.10;;;12.98;;
76292;SDS011;67256;51.154;4.164;2023-08-01T04:14:35;24.05;;;13.30;;
76292;SDS011;67256;51.154;4.164;2023-08-01T04:17:01;22.20;;;11.68;;
76292;SDS011;67256;51.154;4.164;2023-08-01T04:19:26;19.35;;;11.23;;
76292;SDS011;67256;51.154;4.164;2023-08-01T04:21:52;17.70;;;10.65;;
76292;SDS011;67256;51.154;4.164;2023-08-01T04:24:17;18.73;;;10.68;;
76292;SDS011;67256;51.154;4.164;2023-08-01T04:26:44;20.33;;;10.02;;
76292;SDS011;67256;51.154;4.164;2023-08-01T04:29:09;16.75;;;9.60;;
76292;SDS011;67256;51.154;4.164;2023-08-01T04:31:35;23.83;;;9.82;;
76292;SDS011;67256;51.154;4.164;2023-08-01T04:34:01;16.65;;;8.90;;
76292;SDS011;67256;51.154;4.164;2023-08-01T04:36:26;21.35;;;10.15;;
76292;SDS011;67256;51.154;4.164;2023-08-01T04:38:52;21.15;;;9.63;;
76292;SDS011;67256;51.154;4.164;2023-08-01T04:41:18;20.20;;;9.07;;
76292;SDS011;67256;51.154;4.164;2023-08-01T04:43:43;17.13;;;8.15;;
76292;SDS011;67256;51.154;4.164;2023-08-01T04:46:09;31.98;;;9.88;;
76292;SDS011;67256;51.154;4.164;2023-08-01T04:48:34;17.40;;;9.35;;
76292;SDS011;67256;51.154;4.164;2023-08-01T04:51:00;14.95;;;8.10;;
76292;SDS011;67256;51.154;4.164;2023-08-01T04:53:26;16.30;;;7.53;;
76292;SDS011;67256;51.154;4.164;2023-08-01T04:55:51;20.05;;;8.27;;
76292;SDS011;67256;51.154;4.164;2023-08-01T04:58:17;19.27;;;8.77;;
76292;SDS011;67256;51.154;4.164;2023-08-01T05:00:43;21.48;;;9.35;;
76292;SDS011;67256;51.154;4.164;2023-08-01T05:03:08;13.07;;;7.85;;
76292;SDS011;67256;51.154;4.164;2023-08-01T05:05:34;15.65;;;7.72;;
76292;SDS011;67256;51.154;4.164;2023-08-01T05:08:00;19.05;;;8.15;;
76292;SDS011;67256;51.154;4.164;2023-08-01T05:10:26;17.73;;;7.43;;
76292;SDS011;67256;51.154;4.164;2023-08-01T05:12:51;21.30;;;7.30;;
76292;SDS011;67256;51.154;4.164;2023-08-01T05:15:17;17.85;;;7.00;;
76292;SDS011;67256;51.154;4.164;2023-08-01T05:17:43;19.70;;;8.32;;
76292;SDS011;67256;51.154;4.164;2023-08-01T05:20:08;17.92;;;7.25;;
76292;SDS011;67256;51.154;4.164;2023-08-01T05:22:34;18.98;;;7.28;;
76292;SDS011;67256;51.154;4.164;2023-08-01T05:25:00;18.50;;;7.32;;
76292;SDS011;67256;51.154;4.164;2023-08-01T05:27:27;17.90;;;7.32;;
76292;SDS011;67256;51.154;4.164;2023-08-01T05:29:52;20.67;;;7.32;;
76292;SDS011;67256;51.154;4.164;2023-08-01T05:32:18;16.52;;;7.18;;
76292;SDS011;67256;51.154;4.164;2023-08-01T05:34:44;17.35;;;7.28;;
76292;SDS011;67256;51.154;4.164;2023-08-01T05:37:09;18.13;;;7.22;;
76292;SDS011;67256;51.154;4.164;2023-08-01T05:39:35;11.23;;;6.40;;
76292;SDS011;67256;51.154;4.164;2023-08-01T05:42:01;19.25;;;6.85;;
76292;SDS011;67256;51.154;4.164;2023-08-01T05:44:26;12.02;;;6.80;;
76292;SDS011;67256;51.154;4.164;2023-08-01T05:46:53;19.23;;;7.35;;
76292;SDS011;67256;51.154;4.164;2023-08-01T05:49:18;9.73;;;6.18;;
76292;SDS011;67256;51.154;4.164;2023-08-01T05:51:45;15.35;;;7.15;;
76292;SDS011;67256;51.154;4.164;2023-08-01T05:54:11;18.13;;;7.28;;
76292;SDS011;67256;51.154;4.164;2023-08-01T05:56:37;14.60;;;6.75;;
76292;SDS011;67256;51.154;4.164;2023-08-01T05:59:02;14.30;;;6.35;;
76292;SDS011;67256;51.154;4.164;2023-08-01T06:01:28;13.60;;;7.03;;
76292;SDS011;67256;51.154;4.164;2023-08-01T06:03:54;17.48;;;6.75;;
76292;SDS011;67256;51.154;4.164;2023-08-01T06:06:20;13.65;;;7.05;;
76292;SDS011;67256;51.154;4.164;2023-08-01T06:08:45;16.98;;;6.47;;
76292;SDS011;67256;51.154;4.164;2023-08-01T06:11:11;20.48;;;7.20;;
76292;SDS011;67256;51.154;4.164;2023-08-01T06:13:36;17.20;;;6.63;;
76292;SDS011;67256;51.154;4.164;2023-08-01T06:16:02;16.90;;;7.35;;
76292;SDS011;67256;51.154;4.164;2023-08-01T06:18:28;17.27;;;5.95;;
76292;SDS011;67256;51.154;4.164;2023-08-01T06:20:54;15.38;;;6.68;;
76292;SDS011;67256;51.154;4.164;2023-08-01T06:23:19;15.18;;;6.85;;
76292;SDS011;67256;51.154;4.164;2023-08-01T06:25:45;19.27;;;6.75;;
76292;SDS011;67256;51.154;4.164;2023-08-01T06:28:11;14.57;;;6.22;;
76292;SDS011;67256;51.154;4.164;2023-08-01T06:30:37;11.85;;;6.80;;
76292;SDS011;67256;51.154;4.164;2023-08-01T06:33:03;18.70;;;6.72;;
76292;SDS011;67256;51.154;4.164;2023-08-01T06:35:28;13.93;;;6.70;;
76292;SDS011;67256;51.154;4.164;2023-08-01T06:37:54;16.27;;;6.90;;
76292;SDS011;67256;51.154;4.164;2023-08-01T06:40:20;16.83;;;6.97;;
76292;SDS011;67256;51.154;4.164;2023-08-01T06:42:45;18.23;;;8.30;;
76292;SDS011;67256;51.154;4.164;2023-08-01T06:45:11;15.48;;;7.53;;
76292;SDS011;67256;51.154;4.164;2023-08-01T06:47:37;12.98;;;6.18;;
76292;SDS011;67256;51.154;4.164;2023-08-01T06:50:03;13.27;;;6.95;;
76292;SDS011;67256;51.154;4.164;2023-08-01T06:52:30;12.00;;;5.78;;
76292;SDS011;67256;51.154;4.164;2023-08-01T06:54:55;15.85;;;6.80;;
76292;SDS011;67256;51.154;4.164;2023-08-01T06:57:21;15.15;;;6.28;;
76292;SDS011;67256;51.154;4.164;2023-08-01T06:59:46;17.92;;;6.18;;
76292;SDS011;67256;51.154;4.164;2023-08-01T07:02:12;13.23;;;6.10;;
76292;SDS011;67256;51.154;4.164;2023-08-01T07:04:38;14.48;;;5.90;;
76292;SDS011;67256;51.154;4.164;2023-08-01T07:07:04;14.88;;;6.03;;
76292;SDS011;67256;51.154;4.164;2023-08-01T07:09:30;18.25;;;6.07;;
76292;SDS011;67256;51.154;4.164;2023-08-01T07:11:56;13.75;;;5.43;;
76292;SDS011;67256;51.154;4.164;2023-08-01T07:14:22;11.27;;;5.18;;
76292;SDS011;67256;51.154;4.164;2023-08-01T07:16:47;11.90;;;4.60;;
76292;SDS011;67256;51.154;4.164;2023-08-01T07:19:13;11.98;;;5.57;;
76292;SDS011;67256;51.154;4.164;2023-08-01T07:21:38;13.10;;;5.10;;
76292;SDS011;67256;51.154;4.164;2023-08-01T07:24:04;9.60;;;4.30;;
76292;SDS011;67256;51.154;4.164;2023-08-01T07:26:31;15.90;;;5.38;;
76292;SDS011;67256;51.154;4.164;2023-08-01T07:28:56;17.33;;;4.80;;
76292;SDS011;67256;51.154;4.164;2023-08-01T07:31:22;12.15;;;4.40;;
76292;SDS011;67256;51.154;4.164;2023-08-01T07:33:48;11.02;;;5.18;;
76292;SDS011;67256;51.154;4.164;2023-08-01T07:36:13;12.25;;;4.80;;
76292;SDS011;67256;51.154;4.164;2023-08-01T07:38:39;9.73;;;4.70;;
76292;SDS011;67256;51.154;4.164;2023-08-01T07:41:05;11.82;;;3.92;;
76292;SDS011;67256;51.154;4.164;2023-08-01T07:43:32;13.00;;;4.90;;
76292;SDS011;67256;51.154;4.164;2023-08-01T07:45:59;14.55;;;4.70;;
76292;SDS011;67256;51.154;4.164;2023-08-01T07:48:25;14.55;;;5.03;;
76292;SDS011;67256;51.154;4.164;2023-08-01T07:50:51;14.63;;;4.57;;
76292;SDS011;67256;51.154;4.164;2023-08-01T07:53:17;14.23;;;5.63;;
76292;SDS011;67256;51.154;4.164;2023-08-01T07:55:42;12.10;;;4.70;;
76292;SDS011;67256;51.154;4.164;2023-08-01T07:58:08;11.65;;;4.28;;
76292;SDS011;67256;51.154;4.164;2023-08-01T08:00:34;10.18;;;4.10;;
76292;SDS011;67256;51.154;4.164;2023-08-01T08:03:00;18.23;;;5.40;;
76292;SDS011;67256;51.154;4.164;2023-08-01T08:05:26;16.98;;;5.68;;
76292;SDS011;67256;51.154;4.164;2023-08-01T08:07:52;8.60;;;4.22;;
76292;SDS011;67256;51.154;4.164;2023-08-01T08:10:17;10.52;;;4.13;;
76292;SDS011;67256;51.154;4.164;2023-08-01T08:12:43;15.63;;;4.68;;
76292;SDS011;67256;51.154;4.164;2023-08-01T08:15:09;10.80;;;4.13;;
76292;SDS011;67256;51.154;4.164;2023-08-01T08:17:35;11.40;;;4.35;;
76292;SDS011;67256;51.154;4.164;2023-08-01T08:20:01;16.17;;;4.45;;
76292;SDS011;67256;51.154;4.164;2023-08-01T08:22:28;9.23;;;3.60;;
76292;SDS011;67256;51.154;4.164;2023-08-01T08:24:54;7.75;;;3.38;;
76292;SDS011;67256;51.154;4.164;2023-08-01T08:27:20;13.00;;;4.05;;
76292;SDS011;67256;51.154;4.164;2023-08-01T08:29:46;10.25;;;3.47;;
76292;SDS011;67256;51.154;4.164;2023-08-01T08:32:11;9.13;;;3.63;;
76292;SDS011;67256;51.154;4.164;2023-08-01T08:34:37;12.57;;;3.95;;
76292;SDS011;67256;51.154;4.164;2023-08-01T08:37:04;12.02;;;3.75;;
76292;SDS011;67256;51.154;4.164;2023-08-01T08:39:30;12.68;;;5.25;;
76292;SDS011;67256;51.154;4.164;2023-08-01T08:41:56;10.00;;;3.55;;
76292;SDS011;67256;51.154;4.164;2023-08-01T08:44:22;12.55;;;3.50;;
76292;SDS011;67256;51.154;4.164;2023-08-01T08:46:53;8.20;;;3.10;;
76292;SDS011;67256;51.154;4.164;2023-08-01T08:49:20;14.00;;;3.55;;
76292;SDS011;67256;51.154;4.164;2023-08-01T08:51:46;8.60;;;3.20;;
76292;SDS011;67256;51.154;4.164;2023-08-01T08:54:15;9.68;;;3.45;;
76292;SDS011;67256;51.154;4.164;2023-08-01T08:56:41;11.80;;;3.25;;
76292;SDS011;67256;51.154;4.164;2023-08-01T08:59:07;9.82;;;3.42;;
76292;SDS011;67256;51.154;4.164;2023-08-01T09:01:35;11.23;;;3.78;;
76292;SDS011;67256;51.154;4.164;2023-08-01T09:04:04;13.73;;;4.13;;
76292;SDS011;67256;51.154;4.164;2023-08-01T09:06:35;9.35;;;3.72;;
76292;SDS011;67256;51.154;4.164;2023-08-01T09:09:14;11.00;;;3.85;;
76292;SDS011;67256;51.154;4.164;2023-08-01T09:11:50;14.95;;;4.18;;
76292;SDS011;67256;51.154;4.164;2023-08-01T09:14:17;10.00;;;4.07;;
76292;SDS011;67256;51.154;4.164;2023-08-01T09:16:44;12.18;;;4.18;;
76292;SDS011;67256;51.154;4.164;2023-08-01T09:19:15;12.07;;;4.90;;
76292;SDS011;67256;51.154;4.164;2023-08-01T09:21:48;9.30;;;3.30;;
76292;SDS011;67256;51.154;4.164;2023-08-01T09:24:16;8.90;;;3.22;;
76292;SDS011;67256;51.154;4.164;2023-08-01T09:26:43;9.68;;;3.15;;
76292;SDS011;67256;51.154;4.164;2023-08-01T09:29:11;12.60;;;4.40;;
76292;SDS011;67256;51.154;4.164;2023-08-01T09:31:38;11.82;;;3.65;;
76292;SDS011;67256;51.154;4.164;2023-08-01T09:34:06;8.75;;;3.65;;
76292;SDS011;67256;51.154;4.164;2023-08-01T09:36:43;8.90;;;3.47;;
76292;SDS011;67256;51.154;4.164;2023-08-01T09:39:08;7.63;;;3.03;;
76292;SDS011;67256;51.154;4.164;2023-08-01T09:41:40;9.70;;;2.97;;
76292;SDS011;67256;51.154;4.164;2023-08-01T09:44:06;8.98;;;2.92;;
76292;SDS011;67256;51.154;4.164;2023-08-01T09:46:35;10.70;;;3.58;;
76292;SDS011;67256;51.154;4.164;2023-08-01T09:49:11;8.20;;;2.85;;
76292;SDS011;67256;51.154;4.164;2023-08-01T09:51:46;12.73;;;2.72;;
76292;SDS011;67256;51.154;4.164;2023-08-01T09:54:13;8.45;;;2.90;;
76292;SDS011;67256;51.154;4.164;2023-08-01T09:56:40;8.18;;;2.40;;
76292;SDS011;67256;51.154;4.164;2023-08-01T09:59:09;8.02;;;2.42;;
76292;SDS011;67256;51.154;4.164;2023-08-01T10:01:35;8.52;;;2.85;;
76292;SDS011;67256;51.154;4.164;2023-08-01T10:04:03;9.82;;;2.90;;
76292;SDS011;67256;51.154;4.164;2023-08-01T10:06:31;6.50;;;2.08;;
76292;SDS011;67256;51.154;4.164;2023-08-01T10:09:02;7.20;;;2.13;;
76292;SDS011;67256;51.154;4.164;2023-08-01T10:11:28;7.35;;;2.35;;
76292;SDS011;67256;51.154;4.164;2023-08-01T10:13:55;9.13;;;2.53;;
76292;SDS011;67256;51.154;4.164;2023-08-01T10:16:21;9.23;;;2.88;;
76292;SDS011;67256;51.154;4.164;2023-08-01T10:18:48;6.57;;;2.33;;
76292;SDS011;67256;51.154;4.164;2023-08-01T10:21:16;9.52;;;2.70;;
76292;SDS011;67256;51.154;4.164;2023-08-01T10:23:42;10.23;;;3.00;;
76292;SDS011;67256;51.154;4.164;2023-08-01T10:26:10;9.18;;;2.70;;
76292;SDS011;67256;51.154;4.164;2023-08-01T10:28:37;8.45;;;2.20;;
76292;SDS011;67256;51.154;4.164;2023-08-01T10:31:15;8.68;;;2.20;;
76292;SDS011;67256;51.154;4.164;2023-08-01T10:33:42;10.55;;;2.55;;
76292;SDS011;67256;51.154;4.164;2023-08-01T10:36:12;9.93;;;2.20;;
76292;SDS011;67256;51.154;4.164;2023-08-01T10:38:49;9.63;;;2.25;;
76292;SDS011;67256;51.154;4.164;2023-08-01T10:49:18;5.95;;;2.00;;
76292;SDS011;67256;51.154;4.164;2023-08-01T10:51:46;7.25;;;2.22;;
76292;SDS011;67256;51.154;4.164;2023-08-01T10:54:22;11.57;;;2.10;;
76292;SDS011;67256;51.154;4.164;2023-08-01T10:56:50;8.65;;;2.17;;
76292;SDS011;67256;51.154;4.164;2023-08-01T10:59:20;6.40;;;2.25;;
76292;SDS011;67256;51.154;4.164;2023-08-01T11:01:48;7.57;;;1.95;;
76292;SDS011;67256;51.154;4.164;2023-08-01T11:04:19;8.00;;;1.77;;
76292;SDS011;67256;51.154;4.164;2023-08-01T11:06:47;9.57;;;2.03;;
76292;SDS011;67256;51.154;4.164;2023-08-01T11:11:47;5.85;;;1.75;;
76292;SDS011;67256;51.154;4.164;2023-08-01T11:14:15;7.35;;;1.80;;
76292;SDS011;67256;51.154;4.164;2023-08-01T11:16:41;7.30;;;1.40;;
76292;SDS011;67256;51.154;4.164;2023-08-01T11:19:18;6.70;;;2.35;;
76292;SDS011;67256;51.154;4.164;2023-08-01T11:21:51;8.00;;;1.63;;
76292;SDS011;67256;51.154;4.164;2023-08-01T11:24:18;10.43;;;1.90;;
76292;SDS011;67256;51.154;4.164;2023-08-01T11:26:45;5.80;;;1.70;;
76292;SDS011;67256;51.154;4.164;2023-08-01T11:29:13;8.40;;;1.75;;
76292;SDS011;67256;51.154;4.164;2023-08-01T11:31:40;8.18;;;1.98;;
76292;SDS011;67256;51.154;4.164;2023-08-01T11:34:07;7.22;;;2.00;;
76292;SDS011;67256;51.154;4.164;2023-08-01T11:36:36;9.27;;;1.92;;
76292;SDS011;67256;51.154;4.164;2023-08-01T11:39:03;11.55;;;2.03;;
76292;SDS011;67256;51.154;4.164;2023-08-01T11:41:29;6.57;;;1.60;;
76292;SDS011;67256;51.154;4.164;2023-08-01T11:43:55;6.22;;;1.88;;
76292;SDS011;67256;51.154;4.164;2023-08-01T11:46:30;5.13;;;1.60;;
76292;SDS011;67256;51.154;4.164;2023-08-01T11:48:57;2.95;;;1.13;;
76292;SDS011;67256;51.154;4.164;2023-08-01T11:51:24;8.60;;;1.50;;
76292;SDS011;67256;51.154;4.164;2023-08-01T11:54:03;8.80;;;1.95;;
76292;SDS011;67256;51.154;4.164;2023-08-01T11:56:29;9.38;;;2.05;;
76292;SDS011;67256;51.154;4.164;2023-08-01T11:58:55;3.70;;;1.30;;
76292;SDS011;67256;51.154;4.164;2023-08-01T12:01:21;4.50;;;1.38;;
76292;SDS011;67256;51.154;4.164;2023-08-01T12:03:51;6.95;;;2.47;;
76292;SDS011;67256;51.154;4.164;2023-08-01T12:06:20;7.40;;;2.00;;
76292;SDS011;67256;51.154;4.164;2023-08-01T12:08:47;5.90;;;1.98;;
76292;SDS011;67256;51.154;4.164;2023-08-01T12:11:20;6.55;;;1.77;;
76292;SDS011;67256;51.154;4.164;2023-08-01T12:16:35;6.78;;;1.58;;
76292;SDS011;67256;51.154;4.164;2023-08-01T12:19:01;5.60;;;1.52;;
76292;SDS011;67256;51.154;4.164;2023-08-01T12:21:27;4.30;;;1.50;;
76292;SDS011;67256;51.154;4.164;2023-08-01T12:23:54;4.57;;;1.52;;
76292;SDS011;67256;51.154;4.164;2023-08-01T12:26:20;8.82;;;1.45;;
76292;SDS011;67256;51.154;4.164;2023-08-01T12:28:46;2.65;;;1.25;;
76292;SDS011;67256;51.154;4.164;2023-08-01T12:31:15;4.57;;;1.48;;
76292;SDS011;67256;51.154;4.164;2023-08-01T12:33:42;5.03;;;1.40;;
76292;SDS011;67256;51.154;4.164;2023-08-01T12:36:08;7.75;;;1.88;;
76292;SDS011;67256;51.154;4.164;2023-08-01T12:38:33;5.25;;;1.60;;
76292;SDS011;67256;51.154;4.164;2023-08-01T12:41:00;4.38;;;1.23;;
76292;SDS011;67256;51.154;4.164;2023-08-01T12:43:26;4.78;;;1.50;;
76292;SDS011;67256;51.154;4.164;2023-08-01T12:45:52;6.97;;;1.65;;
76292;SDS011;67256;51.154;4.164;2023-08-01T12:48:18;4.40;;;1.38;;
76292;SDS011;67256;51.154;4.164;2023-08-01T12:50:44;6.35;;;1.58;;
76292;SDS011;67256;51.154;4.164;2023-08-01T12:53:11;5.95;;;1.30;;
76292;SDS011;67256;51.154;4.164;2023-08-01T12:55:37;7.65;;;1.55;;
76292;SDS011;67256;51.154;4.164;2023-08-01T12:58:03;5.72;;;1.48;;
76292;SDS011;67256;51.154;4.164;2023-08-01T13:00:31;4.43;;;1.80;;
76292;SDS011;67256;51.154;4.164;2023-08-01T13:02:57;4.40;;;1.38;;
76292;SDS011;67256;51.154;4.164;2023-08-01T13:05:23;6.57;;;1.60;;
76292;SDS011;67256;51.154;4.164;2023-08-01T13:07:49;4.70;;;1.38;;
76292;SDS011;67256;51.154;4.164;2023-08-01T13:10:15;8.65;;;1.85;;
76292;SDS011;67256;51.154;4.164;2023-08-01T13:12:40;4.25;;;1.33;;
76292;SDS011;67256;51.154;4.164;2023-08-01T13:15:07;6.65;;;1.70;;
76292;SDS011;67256;51.154;4.164;2023-08-01T13:17:33;6.53;;;1.23;;
76292;SDS011;67256;51.154;4.164;2023-08-01T13:19:59;6.10;;;1.60;;
76292;SDS011;67256;51.154;4.164;2023-08-01T13:22:25;7.18;;;1.50;;
76292;SDS011;67256;51.154;4.164;2023-08-01T13:24:50;8.35;;;1.90;;
76292;SDS011;67256;51.154;4.164;2023-08-01T13:27:16;7.82;;;1.85;;
76292;SDS011;67256;51.154;4.164;2023-08-01T13:29:42;7.88;;;2.58;;
76292;SDS011;67256;51.154;4.164;2023-08-01T13:32:07;8.02;;;2.10;;
76292;SDS011;67256;51.154;4.164;2023-08-01T13:34:33;5.80;;;1.65;;
76292;SDS011;67256;51.154;4.164;2023-08-01T13:36:59;6.18;;;1.50;;
76292;SDS011;67256;51.154;4.164;2023-08-01T13:39:24;4.03;;;1.65;;
76292;SDS011;67256;51.154;4.164;2023-08-01T13:41:50;8.23;;;2.17;;
76292;SDS011;67256;51.154;4.164;2023-08-01T13:44:15;6.50;;;1.63;;
76292;SDS011;67256;51.154;4.164;2023-08-01T13:46:42;5.25;;;2.00;;
76292;SDS011;67256;51.154;4.164;2023-08-01T13:49:07;5.40;;;1.40;;
76292;SDS011;67256;51.154;4.164;2023-08-01T13:51:33;5.65;;;1.60;;
76292;SDS011;67256;51.154;4.164;2023-08-01T13:53:59;7.28;;;1.67;;
76292;SDS011;67256;51.154;4.164;2023-08-01T13:56:26;5.35;;;1.35;;
76292;SDS011;67256;51.154;4.164;2023-08-01T13:58:52;6.57;;;1.70;;
76292;SDS011;67256;51.154;4.164;2023-08-01T14:01:17;5.75;;;1.90;;
76292;SDS011;67256;51.154;4.164;2023-08-01T14:03:44;4.28;;;1.70;;
76292;SDS011;67256;51.154;4.164;2023-08-01T14:06:11;6.18;;;1.70;;
76292;SDS011;67256;51.154;4.164;2023-08-01T14:08:38;7.55;;;1.48;;
76292;SDS011;67256;51.154;4.164;2023-08-01T14:11:05;5.10;;;1.67;;
76292;SDS011;67256;51.154;4.164;2023-08-01T14:13:32;5.82;;;2.53;;
76292;SDS011;67256;51.154;4.164;2023-08-01T14:15:59;5.90;;;1.90;;
76292;SDS011;67256;51.154;4.164;2023-08-01T14:18:26;7.60;;;1.90;;
76292;SDS011;67256;51.154;4.164;2023-08-01T14:20:52;5.35;;;2.00;;
76292;SDS011;67256;51.154;4.164;2023-08-01T14:23:18;6.55;;;1.88;;
76292;SDS011;67256;51.154;4.164;2023-08-01T14:25:45;5.25;;;1.83;;
76292;SDS011;67256;51.154;4.164;2023-08-01T14:28:11;4.82;;;1.58;;
76292;SDS011;67256;51.154;4.164;2023-08-01T14:30:37;7.38;;;2.05;;
76292;SDS011;67256;51.154;4.164;2023-08-01T14:33:04;9.45;;;2.15;;
76292;SDS011;67256;51.154;4.164;2023-08-01T14:35:31;6.97;;;1.80;;
76292;SDS011;67256;51.154;4.164;2023-08-01T14:37:58;10.20;;;1.92;;
76292;SDS011;67256;51.154;4.164;2023-08-01T14:40:24;8.00;;;2.35;;
76292;SDS011;67256;51.154;4.164;2023-08-01T14:42:50;10.40;;;1.85;;
76292;SDS011;67256;51.154;4.164;2023-08-01T14:45:17;7.35;;;2.10;;